createdAt,value
2017-11-18T00:00:03.326Z,924.89
2017-11-18T00:00:16.474Z,924.89
2017-11-18T00:00:29.631Z,924.87
2017-11-18T00:00:42.739Z,924.89
2017-11-18T00:00:55.851Z,924.86
2017-11-18T00:01:08.478Z,924.89
2017-11-18T00:01:21.638Z,924.9
2017-11-18T00:01:34.809Z,924.9
2017-11-18T00:01:47.921Z,924.89
2017-11-18T00:02:01.088Z,924.88
2017-11-18T00:02:14.248Z,924.87
2017-11-18T00:02:26.950Z,924.86
2017-11-18T00:02:40.039Z,924.89
2017-11-18T00:02:53.141Z,924.86
2017-11-18T00:03:06.272Z,924.87
2017-11-18T00:03:19.379Z,924.87
2017-11-18T00:03:32.504Z,924.86
2017-11-18T00:03:45.658Z,924.87
2017-11-18T00:03:58.820Z,924.85
2017-11-18T00:04:11.015Z,924.85
2017-11-18T00:04:24.441Z,924.87
2017-11-18T00:04:37.106Z,924.87
2017-11-18T00:04:50.271Z,924.91
2017-11-18T00:05:03.406Z,924.91
2017-11-18T00:05:16.573Z,924.91
2017-11-18T00:05:29.676Z,924.92
2017-11-18T00:05:42.774Z,924.91
2017-11-18T00:05:55.920Z,924.92
2017-11-18T00:06:09.065Z,924.9
2017-11-18T00:06:22.190Z,924.88
2017-11-18T00:06:35.289Z,924.89
2017-11-18T00:06:48.413Z,924.87
2017-11-18T00:07:01.515Z,924.92
2017-11-18T00:07:14.184Z,924.88
2017-11-18T00:07:27.269Z,924.92
2017-11-18T00:07:39.948Z,924.85
2017-11-18T00:07:53.061Z,924.89
2017-11-18T00:08:06.179Z,924.9
2017-11-18T00:08:19.383Z,924.88
2017-11-18T00:08:32.046Z,924.88
2017-11-18T00:08:45.156Z,924.89
2017-11-18T00:08:58.430Z,924.91
2017-11-18T00:09:11.577Z,924.84
2017-11-18T00:09:25.007Z,924.85
2017-11-18T00:09:37.631Z,924.83
2017-11-18T00:09:50.309Z,924.85
2017-11-18T00:10:03.491Z,924.85
2017-11-18T00:10:16.625Z,924.87
2017-11-18T00:10:29.265Z,924.85
2017-11-18T00:10:42.386Z,924.84
2017-11-18T00:10:55.051Z,924.83
2017-11-18T00:11:07.715Z,924.85
2017-11-18T00:11:20.788Z,924.87
2017-11-18T00:11:33.909Z,924.87
2017-11-18T00:11:47.036Z,924.85
2017-11-18T00:12:00.185Z,924.83
2017-11-18T00:12:13.365Z,924.81
2017-11-18T00:12:26.000Z,924.84
2017-11-18T00:12:39.142Z,924.87
2017-11-18T00:12:52.335Z,924.83
2017-11-18T00:13:05.484Z,924.81
2017-11-18T00:13:18.613Z,924.83
2017-11-18T00:13:31.257Z,924.86
2017-11-18T00:13:44.393Z,924.84
2017-11-18T00:13:57.490Z,924.82
2017-11-18T00:14:10.567Z,924.83
2017-11-18T00:14:23.970Z,924.83
2017-11-18T00:14:37.293Z,924.81
2017-11-18T00:14:50.432Z,924.8
2017-11-18T00:15:03.555Z,924.83
2017-11-18T00:15:16.727Z,924.85
2017-11-18T00:15:29.896Z,924.8
2017-11-18T00:15:42.517Z,924.84
2017-11-18T00:15:55.682Z,924.81
2017-11-18T00:16:07.822Z,924.79
2017-11-18T00:16:20.953Z,924.8
2017-11-18T00:16:34.063Z,924.82
2017-11-18T00:16:46.729Z,924.81
2017-11-18T00:16:59.868Z,924.81
2017-11-18T00:17:12.988Z,924.83
2017-11-18T00:17:25.635Z,924.79
2017-11-18T00:17:38.780Z,924.85
2017-11-18T00:17:51.965Z,924.81
2017-11-18T00:18:05.131Z,924.84
2017-11-18T00:18:18.269Z,924.84
2017-11-18T00:18:30.956Z,924.84
2017-11-18T00:18:43.611Z,924.85
2017-11-18T00:18:56.777Z,924.86
2017-11-18T00:19:09.433Z,924.86
2017-11-18T00:19:22.611Z,924.86
2017-11-18T00:19:35.923Z,924.85
2017-11-18T00:19:48.548Z,924.86
2017-11-18T00:20:00.717Z,924.86
2017-11-18T00:20:13.387Z,924.83
2017-11-18T00:20:26.579Z,924.85
2017-11-18T00:20:39.763Z,924.88
2017-11-18T00:20:52.912Z,924.92
2017-11-18T00:21:06.130Z,924.92
2017-11-18T00:21:19.339Z,924.88
2017-11-18T00:21:32.538Z,924.89
2017-11-18T00:21:45.737Z,924.91
2017-11-18T00:21:58.871Z,924.92
2017-11-18T00:22:12.032Z,924.92
2017-11-18T00:22:24.703Z,924.9
2017-11-18T00:22:37.282Z,924.89
2017-11-18T00:22:49.966Z,924.92
2017-11-18T00:23:03.111Z,924.89
2017-11-18T00:23:16.247Z,924.91
2017-11-18T00:23:29.387Z,924.95
2017-11-18T00:23:42.496Z,924.93
2017-11-18T00:23:55.665Z,924.92
2017-11-18T00:24:08.845Z,924.94
2017-11-18T00:24:20.526Z,924.93
2017-11-18T00:24:33.195Z,924.91
2017-11-18T00:24:46.273Z,924.92
2017-11-18T00:24:59.464Z,924.95
2017-11-18T00:25:12.650Z,924.95
2017-11-18T00:25:25.353Z,924.94
2017-11-18T00:25:38.503Z,924.95
2017-11-18T00:25:51.676Z,924.99
2017-11-18T00:26:04.817Z,924.95
2017-11-18T00:26:17.514Z,924.98
2017-11-18T00:26:30.667Z,924.96
2017-11-18T00:26:43.823Z,924.96
2017-11-18T00:26:56.900Z,924.96
2017-11-18T00:27:10.070Z,924.98
2017-11-18T00:27:23.261Z,924.96
2017-11-18T00:27:36.395Z,924.97
2017-11-18T00:27:49.512Z,924.98
2017-11-18T00:28:02.672Z,924.99
2017-11-18T00:28:15.320Z,925.01
2017-11-18T00:28:28.459Z,924.99
2017-11-18T00:28:41.562Z,925.01
2017-11-18T00:28:54.713Z,924.98
2017-11-18T00:29:07.840Z,924.97
2017-11-18T00:29:21.027Z,924.99
2017-11-18T00:29:34.246Z,924.99
2017-11-18T00:29:47.374Z,924.98
2017-11-18T00:30:00.533Z,924.93
2017-11-18T00:30:13.229Z,924.96
2017-11-18T00:30:26.372Z,924.99
2017-11-18T00:30:39.463Z,925
2017-11-18T00:30:52.580Z,924.99
2017-11-18T00:31:05.717Z,924.99
2017-11-18T00:31:18.869Z,924.99
2017-11-18T00:31:31.992Z,924.97
2017-11-18T00:31:45.173Z,924.98
2017-11-18T00:31:58.287Z,924.98
2017-11-18T00:32:11.483Z,925.01
2017-11-18T00:32:24.697Z,924.99
2017-11-18T00:32:37.761Z,924.97
2017-11-18T00:32:50.858Z,925
2017-11-18T00:33:04.039Z,924.99
2017-11-18T00:33:17.179Z,924.96
2017-11-18T00:33:29.817Z,924.95
2017-11-18T00:33:42.977Z,924.97
2017-11-18T00:33:56.099Z,925.02
2017-11-18T00:34:09.256Z,924.96
2017-11-18T00:34:22.398Z,924.94
2017-11-18T00:34:36.258Z,924.94
2017-11-18T00:34:48.922Z,924.95
2017-11-18T00:35:02.141Z,924.93
2017-11-18T00:35:14.834Z,924.93
2017-11-18T00:35:27.985Z,924.95
2017-11-18T00:35:41.165Z,924.96
2017-11-18T00:35:54.331Z,924.96
2017-11-18T00:36:07.473Z,925
2017-11-18T00:36:20.648Z,924.97
2017-11-18T00:36:33.313Z,925
2017-11-18T00:36:46.662Z,925.01
2017-11-18T00:36:59.841Z,925
2017-11-18T00:37:12.997Z,924.99
2017-11-18T00:37:26.092Z,925
2017-11-18T00:37:39.222Z,925.02
2017-11-18T00:37:52.373Z,925.05
2017-11-18T00:38:05.526Z,925.03
2017-11-18T00:38:18.904Z,925.02
2017-11-18T00:38:32.000Z,925.03
2017-11-18T00:38:45.181Z,925.06
2017-11-18T00:38:58.317Z,925.05
2017-11-18T00:39:10.955Z,925.07
2017-11-18T00:39:24.120Z,925.07
2017-11-18T00:39:37.317Z,925.06
2017-11-18T00:39:50.503Z,925.11
2017-11-18T00:40:03.622Z,925.12
2017-11-18T00:40:16.319Z,925.09
2017-11-18T00:40:29.469Z,925.11
2017-11-18T00:40:42.567Z,925.14
2017-11-18T00:40:55.235Z,925.12
2017-11-18T00:41:08.352Z,925.12
2017-11-18T00:41:21.681Z,925.15
2017-11-18T00:41:34.356Z,925.09
2017-11-18T00:41:47.440Z,925.11
2017-11-18T00:42:00.618Z,925.14
2017-11-18T00:42:13.785Z,925.14
2017-11-18T00:42:26.940Z,925.13
2017-11-18T00:42:40.387Z,925.14
2017-11-18T00:42:53.560Z,925.19
2017-11-18T00:43:05.761Z,925.13
2017-11-18T00:43:18.969Z,925.15
2017-11-18T00:43:32.152Z,925.15
2017-11-18T00:43:45.285Z,925.16
2017-11-18T00:43:58.002Z,925.13
2017-11-18T00:44:11.172Z,925.14
2017-11-18T00:44:24.328Z,925.17
2017-11-18T00:44:36.965Z,925.12
2017-11-18T00:44:50.117Z,925.06
2017-11-18T00:45:03.233Z,925.12
2017-11-18T00:45:16.385Z,925.16
2017-11-18T00:45:29.540Z,925.14
2017-11-18T00:45:42.197Z,925.15
2017-11-18T00:45:55.382Z,925.21
2017-11-18T00:46:07.576Z,925.14
2017-11-18T00:46:20.721Z,925.16
2017-11-18T00:46:33.921Z,925.15
2017-11-18T00:46:47.113Z,925.15
2017-11-18T00:47:00.222Z,925.16
2017-11-18T00:47:13.331Z,925.17
2017-11-18T00:47:26.497Z,925.15
2017-11-18T00:47:39.600Z,925.17
2017-11-18T00:47:52.771Z,925.15
2017-11-18T00:48:05.856Z,925.14
2017-11-18T00:48:19.011Z,925.15
2017-11-18T00:48:32.213Z,925.18
2017-11-18T00:48:45.355Z,925.13
2017-11-18T00:48:58.523Z,925.13
2017-11-18T00:49:11.644Z,925.15
2017-11-18T00:49:24.794Z,925.16
2017-11-18T00:49:38.139Z,925.2
2017-11-18T00:49:51.230Z,925.21
2017-11-18T00:50:03.882Z,925.19
2017-11-18T00:50:16.993Z,925.15
2017-11-18T00:50:30.099Z,925.14
2017-11-18T00:50:43.212Z,925.19
2017-11-18T00:50:56.379Z,925.13
2017-11-18T00:51:09.577Z,925.15
2017-11-18T00:51:22.723Z,925.13
2017-11-18T00:51:35.831Z,925.15
2017-11-18T00:51:48.955Z,925.16
2017-11-18T00:52:01.618Z,925.14
2017-11-18T00:52:14.787Z,925.14
2017-11-18T00:52:27.904Z,925.12
2017-11-18T00:52:40.582Z,925.12
2017-11-18T00:52:53.235Z,925.17
2017-11-18T00:53:06.358Z,925.12
2017-11-18T00:53:19.471Z,925.15
2017-11-18T00:53:32.646Z,925.12
2017-11-18T00:53:45.804Z,925.09
2017-11-18T00:53:58.468Z,925.1
2017-11-18T00:54:11.609Z,925.09
2017-11-18T00:54:24.772Z,925.08
2017-11-18T00:54:37.932Z,925.07
2017-11-18T00:54:51.090Z,925.06
2017-11-18T00:55:03.731Z,925.11
2017-11-18T00:55:16.894Z,925.08
2017-11-18T00:55:29.557Z,925.06
2017-11-18T00:55:42.674Z,925.03
2017-11-18T00:55:55.835Z,925.05
2017-11-18T00:56:08.445Z,925.05
2017-11-18T00:56:21.531Z,925.03
2017-11-18T00:56:34.170Z,925.01
2017-11-18T00:56:47.263Z,925.01
2017-11-18T00:56:59.901Z,925.02
2017-11-18T00:57:13.013Z,925
2017-11-18T00:57:26.148Z,925
2017-11-18T00:57:39.298Z,925
2017-11-18T00:57:51.968Z,925.01
2017-11-18T00:58:05.088Z,924.98
2017-11-18T00:58:18.192Z,925.01
2017-11-18T00:58:31.319Z,924.99
2017-11-18T00:58:44.502Z,924.98
2017-11-18T00:58:57.664Z,924.95
2017-11-18T00:59:10.770Z,924.95
2017-11-18T00:59:23.381Z,924.96
2017-11-18T00:59:36.484Z,924.94
2017-11-18T00:59:49.250Z,924.92
2017-11-18T01:00:02.377Z,924.95
2017-11-18T01:00:15.485Z,924.95
2017-11-18T01:00:28.623Z,924.92
2017-11-18T01:00:41.795Z,924.96
2017-11-18T01:00:54.461Z,924.92
2017-11-18T01:01:07.091Z,924.91
2017-11-18T01:01:20.202Z,924.9
2017-11-18T01:01:32.831Z,924.92
2017-11-18T01:01:45.960Z,924.9
2017-11-18T01:01:59.117Z,924.87
2017-11-18T01:02:11.728Z,924.86
2017-11-18T01:02:24.434Z,924.84
2017-11-18T01:02:37.573Z,924.81
2017-11-18T01:02:50.201Z,924.83
2017-11-18T01:03:02.833Z,924.82
2017-11-18T01:03:15.940Z,924.85
2017-11-18T01:03:29.086Z,924.81
2017-11-18T01:03:42.247Z,924.79
2017-11-18T01:03:55.391Z,924.77
2017-11-18T01:04:08.539Z,924.77
2017-11-18T01:04:21.642Z,924.76
2017-11-18T01:04:34.772Z,924.74
2017-11-18T01:04:48.543Z,924.74
2017-11-18T01:05:01.178Z,924.74
2017-11-18T01:05:14.316Z,924.69
2017-11-18T01:05:27.477Z,924.68
2017-11-18T01:05:40.609Z,924.66
2017-11-18T01:05:53.737Z,924.67
2017-11-18T01:06:06.957Z,924.65
2017-11-18T01:06:19.626Z,924.63
2017-11-18T01:06:32.765Z,924.64
2017-11-18T01:06:45.432Z,924.65
2017-11-18T01:06:58.546Z,924.64
2017-11-18T01:07:11.669Z,924.61
2017-11-18T01:07:24.813Z,924.62
2017-11-18T01:07:37.979Z,924.62
2017-11-18T01:07:51.092Z,924.62
2017-11-18T01:08:04.220Z,924.61
2017-11-18T01:08:17.332Z,924.62
2017-11-18T01:08:30.052Z,924.6
2017-11-18T01:08:43.225Z,924.61
2017-11-18T01:08:56.400Z,924.59
2017-11-18T01:09:09.058Z,924.61
2017-11-18T01:09:22.228Z,924.61
2017-11-18T01:09:35.412Z,924.62
2017-11-18T01:09:48.132Z,924.59
2017-11-18T01:10:01.274Z,924.63
2017-11-18T01:10:13.436Z,924.61
2017-11-18T01:10:26.088Z,924.61
2017-11-18T01:10:39.235Z,924.6
2017-11-18T01:10:52.384Z,924.64
2017-11-18T01:11:04.561Z,924.68
2017-11-18T01:11:17.254Z,924.63
2017-11-18T01:11:30.352Z,924.65
2017-11-18T01:11:43.495Z,924.67
2017-11-18T01:11:56.615Z,924.65
2017-11-18T01:12:09.292Z,924.66
2017-11-18T01:12:22.421Z,924.66
2017-11-18T01:12:35.097Z,924.7
2017-11-18T01:12:47.799Z,924.67
2017-11-18T01:13:00.990Z,924.68
2017-11-18T01:13:14.148Z,924.69
2017-11-18T01:13:27.357Z,924.68
2017-11-18T01:13:40.496Z,924.66
2017-11-18T01:13:53.688Z,924.69
2017-11-18T01:14:06.351Z,924.66
2017-11-18T01:14:19.502Z,924.67
2017-11-18T01:14:32.143Z,924.65
2017-11-18T01:14:45.549Z,924.67
2017-11-18T01:14:58.732Z,924.65
2017-11-18T01:15:11.924Z,924.66
2017-11-18T01:15:25.103Z,924.67
2017-11-18T01:15:37.740Z,924.66
2017-11-18T01:15:50.904Z,924.7
2017-11-18T01:16:04.003Z,924.65
2017-11-18T01:16:17.156Z,924.67
2017-11-18T01:16:29.809Z,924.67
2017-11-18T01:16:42.985Z,924.66
2017-11-18T01:16:56.143Z,924.62
2017-11-18T01:17:09.246Z,924.7
2017-11-18T01:17:22.409Z,924.64
2017-11-18T01:17:35.549Z,924.64
2017-11-18T01:17:48.754Z,924.61
2017-11-18T01:18:01.958Z,924.62
2017-11-18T01:18:14.625Z,924.63
2017-11-18T01:18:27.778Z,924.6
2017-11-18T01:18:40.452Z,924.57
2017-11-18T01:18:53.093Z,924.56
2017-11-18T01:19:06.195Z,924.55
2017-11-18T01:19:19.308Z,924.55
2017-11-18T01:19:32.397Z,924.55
2017-11-18T01:19:46.255Z,924.56
2017-11-18T01:19:59.365Z,924.56
2017-11-18T01:20:12.546Z,924.54
2017-11-18T01:20:25.168Z,924.55
2017-11-18T01:20:37.328Z,924.51
2017-11-18T01:20:50.445Z,924.55
2017-11-18T01:21:03.578Z,924.56
2017-11-18T01:21:16.796Z,924.53
2017-11-18T01:21:29.919Z,924.53
2017-11-18T01:21:43.060Z,924.56
2017-11-18T01:21:55.253Z,924.53
2017-11-18T01:22:08.376Z,924.52
2017-11-18T01:22:21.545Z,924.53
2017-11-18T01:22:34.744Z,924.53
2017-11-18T01:22:47.976Z,924.49
2017-11-18T01:23:01.077Z,924.5
2017-11-18T01:23:14.205Z,924.51
2017-11-18T01:23:27.323Z,924.53
2017-11-18T01:23:40.479Z,924.5
2017-11-18T01:23:53.141Z,924.54
2017-11-18T01:24:05.782Z,924.51
2017-11-18T01:24:18.941Z,924.49
2017-11-18T01:24:32.050Z,924.47
2017-11-18T01:24:45.194Z,924.48
2017-11-18T01:24:58.365Z,924.48
2017-11-18T01:25:10.977Z,924.49
2017-11-18T01:25:23.615Z,924.48
2017-11-18T01:25:36.761Z,924.48
2017-11-18T01:25:49.451Z,924.5
2017-11-18T01:26:02.622Z,924.48
2017-11-18T01:26:15.784Z,924.51
2017-11-18T01:26:28.913Z,924.49
2017-11-18T01:26:42.081Z,924.51
2017-11-18T01:26:55.206Z,924.51
2017-11-18T01:27:07.891Z,924.48
2017-11-18T01:27:21.064Z,924.51
2017-11-18T01:27:34.183Z,924.51
2017-11-18T01:27:47.268Z,924.48
2017-11-18T01:28:00.436Z,924.5
2017-11-18T01:28:13.593Z,924.51
2017-11-18T01:28:26.698Z,924.48
2017-11-18T01:28:39.887Z,924.54
2017-11-18T01:28:53.014Z,924.5
2017-11-18T01:29:06.189Z,924.54
2017-11-18T01:29:19.335Z,924.53
2017-11-18T01:29:31.945Z,924.51
2017-11-18T01:29:45.065Z,924.53
2017-11-18T01:29:58.324Z,924.53
2017-11-18T01:30:11.483Z,924.51
2017-11-18T01:30:24.642Z,924.51
2017-11-18T01:30:37.733Z,924.49
2017-11-18T01:30:50.428Z,924.53
2017-11-18T01:31:03.562Z,924.53
2017-11-18T01:31:16.206Z,924.55
2017-11-18T01:31:29.322Z,924.5
2017-11-18T01:31:42.407Z,924.51
2017-11-18T01:31:55.518Z,924.53
2017-11-18T01:32:08.692Z,924.55
2017-11-18T01:32:21.843Z,924.55
2017-11-18T01:32:35.022Z,924.56
2017-11-18T01:32:48.156Z,924.51
2017-11-18T01:33:00.827Z,924.51
2017-11-18T01:33:13.952Z,924.5
2017-11-18T01:33:27.068Z,924.54
2017-11-18T01:33:39.793Z,924.53
2017-11-18T01:33:52.471Z,924.5
2017-11-18T01:34:04.630Z,924.51
2017-11-18T01:34:17.830Z,924.5
2017-11-18T01:34:30.977Z,924.5
2017-11-18T01:34:43.149Z,924.49
2017-11-18T01:34:57.030Z,924.53
2017-11-18T01:35:09.690Z,924.5
2017-11-18T01:35:22.836Z,924.49
2017-11-18T01:35:35.988Z,924.51
2017-11-18T01:35:49.102Z,924.5
2017-11-18T01:36:02.235Z,924.48
2017-11-18T01:36:14.870Z,924.51
2017-11-18T01:36:28.022Z,924.49
2017-11-18T01:36:41.131Z,924.51
2017-11-18T01:36:54.332Z,924.43
2017-11-18T01:37:06.980Z,924.48
2017-11-18T01:37:20.129Z,924.45
2017-11-18T01:37:33.226Z,924.49
2017-11-18T01:37:46.368Z,924.45
2017-11-18T01:37:59.486Z,924.47
2017-11-18T01:38:12.639Z,924.46
2017-11-18T01:38:25.802Z,924.45
2017-11-18T01:38:38.962Z,924.43
2017-11-18T01:38:52.070Z,924.45
2017-11-18T01:39:05.242Z,924.44
2017-11-18T01:39:18.361Z,924.39
2017-11-18T01:39:31.032Z,924.42
2017-11-18T01:39:43.670Z,924.44
2017-11-18T01:39:56.799Z,924.43
2017-11-18T01:40:09.487Z,924.41
2017-11-18T01:40:22.162Z,924.37
2017-11-18T01:40:35.378Z,924.39
2017-11-18T01:40:48.501Z,924.38
2017-11-18T01:41:01.129Z,924.38
2017-11-18T01:41:14.330Z,924.36
2017-11-18T01:41:27.489Z,924.39
2017-11-18T01:41:40.660Z,924.39
2017-11-18T01:41:53.822Z,924.39
2017-11-18T01:42:06.929Z,924.38
2017-11-18T01:42:19.609Z,924.37
2017-11-18T01:42:32.341Z,924.33
2017-11-18T01:42:45.471Z,924.33
2017-11-18T01:42:58.562Z,924.32
2017-11-18T01:43:11.748Z,924.32
2017-11-18T01:43:24.911Z,924.3
2017-11-18T01:43:37.577Z,924.3
2017-11-18T01:43:50.720Z,924.29
2017-11-18T01:44:03.887Z,924.3
2017-11-18T01:44:17.054Z,924.31
2017-11-18T01:44:30.180Z,924.27
2017-11-18T01:44:43.329Z,924.29
2017-11-18T01:44:56.747Z,924.27
2017-11-18T01:45:09.885Z,924.31
2017-11-18T01:45:23.054Z,924.31
2017-11-18T01:45:36.246Z,924.31
2017-11-18T01:45:49.431Z,924.28
2017-11-18T01:46:02.594Z,924.28
2017-11-18T01:46:15.783Z,924.28
2017-11-18T01:46:28.953Z,924.29
2017-11-18T01:46:42.069Z,924.29
2017-11-18T01:46:55.268Z,924.28
2017-11-18T01:47:08.354Z,924.26
2017-11-18T01:47:20.983Z,924.25
2017-11-18T01:47:33.705Z,924.23
2017-11-18T01:47:46.829Z,924.26
2017-11-18T01:47:59.941Z,924.22
2017-11-18T01:48:13.121Z,924.2
2017-11-18T01:48:26.219Z,924.16
2017-11-18T01:48:39.361Z,924.2
2017-11-18T01:48:52.490Z,924.2
2017-11-18T01:49:05.702Z,924.2
2017-11-18T01:49:18.829Z,924.19
2017-11-18T01:49:31.936Z,924.16
2017-11-18T01:49:44.615Z,924.18
2017-11-18T01:49:58.427Z,924.21
2017-11-18T01:50:11.612Z,924.18
2017-11-18T01:50:24.796Z,924.17
2017-11-18T01:50:37.500Z,924.17
2017-11-18T01:50:50.660Z,924.16
2017-11-18T01:51:03.825Z,924.17
2017-11-18T01:51:16.461Z,924.14
2017-11-18T01:51:29.607Z,924.14
2017-11-18T01:51:42.731Z,924.14
2017-11-18T01:51:57.259Z,924.12
2017-11-18T01:52:10.415Z,924.13
2017-11-18T01:52:23.550Z,924.11
2017-11-18T01:52:36.683Z,924.11
2017-11-18T01:52:49.820Z,924.08
2017-11-18T01:53:03.057Z,924.09
2017-11-18T01:53:16.200Z,924.06
2017-11-18T01:53:29.323Z,924.05
2017-11-18T01:53:41.988Z,924.04
2017-11-18T01:53:55.138Z,924.03
2017-11-18T01:54:08.289Z,924.04
2017-11-18T01:54:21.438Z,924.05
2017-11-18T01:54:34.598Z,924.07
2017-11-18T01:54:47.727Z,924.04
2017-11-18T01:55:00.846Z,924.08
2017-11-18T01:55:14.011Z,924.05
2017-11-18T01:55:26.676Z,924.06
2017-11-18T01:55:39.367Z,924.05
2017-11-18T01:55:52.580Z,924.05
2017-11-18T01:56:05.704Z,924.03
2017-11-18T01:56:18.851Z,924.03
2017-11-18T01:56:32.034Z,924.02
2017-11-18T01:56:44.711Z,924.04
2017-11-18T01:56:57.878Z,924.02
2017-11-18T01:57:10.982Z,924.02
2017-11-18T01:57:24.149Z,924.03
2017-11-18T01:57:37.278Z,924
2017-11-18T01:57:50.442Z,923.97
2017-11-18T01:58:03.116Z,924.02
2017-11-18T01:58:16.294Z,923.99
2017-11-18T01:58:29.414Z,924.01
2017-11-18T01:58:42.110Z,923.98
2017-11-18T01:58:54.759Z,924.02
2017-11-18T01:59:07.887Z,924.03
2017-11-18T01:59:20.958Z,924
2017-11-18T01:59:34.106Z,924.03
2017-11-18T01:59:46.753Z,924.03
2017-11-18T01:59:59.881Z,924
2017-11-18T02:00:12.648Z,924.01
2017-11-18T02:00:25.349Z,924
2017-11-18T02:00:38.103Z,923.96
2017-11-18T02:00:51.287Z,923.95
2017-11-18T02:01:04.403Z,923.95
2017-11-18T02:01:17.078Z,923.95
2017-11-18T02:01:30.285Z,923.97
2017-11-18T02:01:43.415Z,923.97
2017-11-18T02:01:56.538Z,923.93
2017-11-18T02:02:09.170Z,923.96
2017-11-18T02:02:22.304Z,923.94
2017-11-18T02:02:35.451Z,923.98
2017-11-18T02:02:48.634Z,923.93
2017-11-18T02:03:01.807Z,923.95
2017-11-18T02:03:14.925Z,923.95
2017-11-18T02:03:28.056Z,923.97
2017-11-18T02:03:41.171Z,923.98
2017-11-18T02:03:54.304Z,923.96
2017-11-18T02:04:06.944Z,923.98
2017-11-18T02:04:20.097Z,924
2017-11-18T02:04:33.289Z,923.97
2017-11-18T02:04:46.397Z,923.98
2017-11-18T02:04:59.574Z,923.98
2017-11-18T02:05:12.917Z,924.01
2017-11-18T02:05:37.342Z,924.01
2017-11-18T02:05:50.454Z,923.99
2017-11-18T02:06:03.535Z,924.04
2017-11-18T02:06:16.679Z,923.99
2017-11-18T02:06:29.835Z,924.03
2017-11-18T02:06:42.977Z,924.02
2017-11-18T02:06:56.109Z,924.02
2017-11-18T02:07:09.256Z,924.01
2017-11-18T02:07:22.389Z,923.99
2017-11-18T02:07:35.571Z,924.02
2017-11-18T02:07:48.753Z,924.02
2017-11-18T02:08:01.922Z,924.01
2017-11-18T02:08:15.049Z,924.03
2017-11-18T02:08:28.180Z,924.02
2017-11-18T02:08:41.280Z,924.01
2017-11-18T02:08:54.506Z,924.03
2017-11-18T02:09:07.681Z,924
2017-11-18T02:09:20.878Z,924.04
2017-11-18T02:09:33.914Z,924.03
2017-11-18T02:09:46.094Z,924.04
2017-11-18T02:09:58.760Z,924.03
2017-11-18T02:10:11.889Z,924.03
2017-11-18T02:10:25.018Z,924.04
2017-11-18T02:10:38.106Z,924.03
2017-11-18T02:10:50.265Z,924.03
2017-11-18T02:11:03.431Z,924.03
2017-11-18T02:11:16.629Z,924.03
2017-11-18T02:11:29.265Z,924.02
2017-11-18T02:11:42.445Z,924.05
2017-11-18T02:11:55.120Z,924.02
2017-11-18T02:12:08.444Z,924.01
2017-11-18T02:12:21.579Z,924.03
2017-11-18T02:12:34.635Z,924.01
2017-11-18T02:12:47.775Z,924.03
2017-11-18T02:13:00.926Z,924.02
2017-11-18T02:13:14.016Z,924.03
2017-11-18T02:13:27.110Z,924
2017-11-18T02:13:40.339Z,924.02
2017-11-18T02:13:53.402Z,923.99
2017-11-18T02:14:05.991Z,924.03
2017-11-18T02:14:19.103Z,924
2017-11-18T02:14:32.217Z,923.99
2017-11-18T02:14:45.285Z,924.02
2017-11-18T02:14:58.416Z,924.01
2017-11-18T02:15:11.846Z,924.02
2017-11-18T02:15:25.053Z,924
2017-11-18T02:15:38.222Z,924.03
2017-11-18T02:15:51.279Z,924.03
2017-11-18T02:16:04.403Z,924.02
2017-11-18T02:16:17.019Z,924.02
2017-11-18T02:16:29.197Z,924.02
2017-11-18T02:16:42.361Z,924.04
2017-11-18T02:16:55.570Z,924.05
2017-11-18T02:17:08.751Z,924
2017-11-18T02:17:21.937Z,924.02
2017-11-18T02:17:34.608Z,923.99
2017-11-18T02:17:47.756Z,924.04
2017-11-18T02:18:00.419Z,924
2017-11-18T02:18:13.544Z,923.99
2017-11-18T02:18:26.670Z,924.01
2017-11-18T02:18:39.817Z,923.99
2017-11-18T02:18:52.903Z,923.98
2017-11-18T02:19:06.063Z,924
2017-11-18T02:19:19.197Z,924
2017-11-18T02:19:32.313Z,923.96
2017-11-18T02:19:45.460Z,923.96
2017-11-18T02:19:58.545Z,923.95
2017-11-18T02:20:12.394Z,923.94
2017-11-18T02:20:25.553Z,923.94
2017-11-18T02:20:38.682Z,923.97
2017-11-18T02:20:51.819Z,923.95
2017-11-18T02:21:04.467Z,923.97
2017-11-18T02:21:17.575Z,923.96
2017-11-18T02:21:30.670Z,923.98
2017-11-18T02:21:43.775Z,923.94
2017-11-18T02:21:56.939Z,923.98
2017-11-18T02:22:10.074Z,923.96
2017-11-18T02:22:23.264Z,923.95
2017-11-18T02:22:36.360Z,923.94
2017-11-18T02:22:49.515Z,923.91
2017-11-18T02:23:02.230Z,923.91
2017-11-18T02:23:15.424Z,923.93
2017-11-18T02:23:28.093Z,923.93
2017-11-18T02:23:41.241Z,923.92
2017-11-18T02:23:53.906Z,923.9
2017-11-18T02:24:06.598Z,923.9
2017-11-18T02:24:19.275Z,923.89
2017-11-18T02:24:32.399Z,923.96
2017-11-18T02:24:45.516Z,923.91
2017-11-18T02:24:58.673Z,923.91
2017-11-18T02:25:11.349Z,923.88
2017-11-18T02:25:24.469Z,923.86
2017-11-18T02:25:37.578Z,923.86
2017-11-18T02:25:50.787Z,923.86
2017-11-18T02:26:03.990Z,923.87
2017-11-18T02:26:16.659Z,923.85
2017-11-18T02:26:29.841Z,923.83
2017-11-18T02:26:42.943Z,923.85
2017-11-18T02:26:56.109Z,923.85
2017-11-18T02:27:09.256Z,923.85
2017-11-18T02:27:22.333Z,923.83
2017-11-18T02:27:35.488Z,923.83
2017-11-18T02:27:48.672Z,923.82
2017-11-18T02:28:01.829Z,923.85
2017-11-18T02:28:14.947Z,923.85
2017-11-18T02:28:28.099Z,923.83
2017-11-18T02:28:41.263Z,923.83
2017-11-18T02:28:54.454Z,923.82
2017-11-18T02:29:13.836Z,923.8
2017-11-18T02:29:26.972Z,923.79
2017-11-18T02:29:40.070Z,923.81
2017-11-18T02:29:52.682Z,923.76
2017-11-18T02:30:05.867Z,923.79
2017-11-18T02:30:19.091Z,923.76
2017-11-18T02:30:32.248Z,923.77
2017-11-18T02:30:45.434Z,923.76
2017-11-18T02:30:58.551Z,923.75
2017-11-18T02:31:11.702Z,923.71
2017-11-18T02:31:24.843Z,923.71
2017-11-18T02:31:37.965Z,923.69
2017-11-18T02:31:50.641Z,923.72
2017-11-18T02:32:03.777Z,923.69
2017-11-18T02:32:15.986Z,923.71
2017-11-18T02:32:28.593Z,923.7
2017-11-18T02:32:41.184Z,923.68
2017-11-18T02:32:54.316Z,923.68
2017-11-18T02:33:07.450Z,923.65
2017-11-18T02:33:20.535Z,923.64
2017-11-18T02:33:33.646Z,923.65
2017-11-18T02:33:46.296Z,923.62
2017-11-18T02:33:59.386Z,923.62
2017-11-18T02:34:12.524Z,923.61
2017-11-18T02:34:25.648Z,923.62
2017-11-18T02:34:38.771Z,923.6
2017-11-18T02:34:51.872Z,923.59
2017-11-18T02:35:04.090Z,923.58
2017-11-18T02:35:17.225Z,923.61
2017-11-18T02:35:31.071Z,923.58
2017-11-18T02:35:44.239Z,923.56
2017-11-18T02:35:57.364Z,923.58
2017-11-18T02:36:10.074Z,923.6
2017-11-18T02:36:23.226Z,923.54
2017-11-18T02:36:36.403Z,923.57
2017-11-18T02:36:49.455Z,923.56
2017-11-18T02:37:02.583Z,923.59
2017-11-18T02:37:15.694Z,923.59
2017-11-18T02:37:28.412Z,923.54
2017-11-18T02:37:41.045Z,923.57
2017-11-18T02:37:54.146Z,923.54
2017-11-18T02:38:07.316Z,923.57
2017-11-18T02:38:20.405Z,923.57
2017-11-18T02:38:33.527Z,923.57
2017-11-18T02:38:46.151Z,923.53
2017-11-18T02:38:59.291Z,923.56
2017-11-18T02:39:12.435Z,923.56
2017-11-18T02:39:25.132Z,923.58
2017-11-18T02:39:38.290Z,923.58
2017-11-18T02:39:51.496Z,923.56
2017-11-18T02:40:04.679Z,923.56
2017-11-18T02:40:17.875Z,923.54
2017-11-18T02:40:31.038Z,923.57
2017-11-18T02:40:43.688Z,923.53
2017-11-18T02:40:56.841Z,923.56
2017-11-18T02:41:09.974Z,923.55
2017-11-18T02:41:23.153Z,923.55
2017-11-18T02:41:36.305Z,923.54
2017-11-18T02:41:49.427Z,923.51
2017-11-18T02:42:02.570Z,923.54
2017-11-18T02:42:15.719Z,923.54
2017-11-18T02:42:28.914Z,923.51
2017-11-18T02:42:42.087Z,923.49
2017-11-18T02:42:55.286Z,923.51
2017-11-18T02:43:08.474Z,923.51
2017-11-18T02:43:21.591Z,923.49
2017-11-18T02:43:34.240Z,923.52